sensor_id;sensor_type;location;lat;lon;timestamp;pressure;altitude;pressure_sealevel;temperature;humidity
64388;BME280;50709;52.648;4.764;2022-09-30T00:02:08;100851.66;;;15.87;68.87
64388;BME280;50709;52.648;4.764;2022-09-30T00:04:36;100844.72;;;15.83;69.21
64388;BME280;50709;52.648;4.764;2022-09-30T00:07:01;100850.97;;;15.74;68.54
64388;BME280;50709;52.648;4.764;2022-09-30T00:09:27;100847.47;;;15.74;69.03
64388;BME280;50709;52.648;4.764;2022-09-30T00:11:52;100846.84;;;15.61;69.20
64388;BME280;50709;52.648;4.764;2022-09-30T00:14:20;100839.97;;;15.54;69.47
64388;BME280;50709;52.648;4.764;2022-09-30T00:16:45;100837.38;;;15.51;69.69
64388;BME280;50709;52.648;4.764;2022-09-30T00:19:11;100839.16;;;15.48;69.64
64388;BME280;50709;52.648;4.764;2022-09-30T00:21:37;100848.00;;;15.46;69.61
64388;BME280;50709;52.648;4.764;2022-09-30T00:24:03;100843.41;;;15.56;69.98
64388;BME280;50709;52.648;4.764;2022-09-30T00:26:29;100846.22;;;15.48;69.25
64388;BME280;50709;52.648;4.764;2022-09-30T00:28:57;100849.72;;;15.47;69.90
64388;BME280;50709;52.648;4.764;2022-09-30T00:31:25;100848.03;;;15.44;69.83
64388;BME280;50709;52.648;4.764;2022-09-30T00:33:51;100846.41;;;15.36;69.74
64388;BME280;50709;52.648;4.764;2022-09-30T00:38:59;100843.91;;;15.29;70.09
64388;BME280;50709;52.648;4.764;2022-09-30T00:41:25;100849.28;;;15.22;70.23
64388;BME280;50709;52.648;4.764;2022-09-30T00:43:51;100840.63;;;15.15;70.34
64388;BME280;50709;52.648;4.764;2022-09-30T00:46:37;100846.69;;;15.20;70.11
64388;BME280;50709;52.648;4.764;2022-09-30T00:49:15;100845.88;;;15.15;70.33
64388;BME280;50709;52.648;4.764;2022-09-30T00:51:44;100849.28;;;15.22;70.03
64388;BME280;50709;52.648;4.764;2022-09-30T00:54:16;100843.31;;;15.12;69.91
64388;BME280;50709;52.648;4.764;2022-09-30T00:56:49;100850.16;;;15.21;70.04
64388;BME280;50709;52.648;4.764;2022-09-30T00:59:23;100856.41;;;15.15;70.04
64388;BME280;50709;52.648;4.764;2022-09-30T01:01:50;100847.69;;;15.11;69.72
64388;BME280;50709;52.648;4.764;2022-09-30T01:04:20;100853.00;;;15.08;69.81
64388;BME280;50709;52.648;4.764;2022-09-30T01:06:47;100856.56;;;15.06;69.84
64388;BME280;50709;52.648;4.764;2022-09-30T01:09:12;100849.59;;;15.02;70.06
64388;BME280;50709;52.648;4.764;2022-09-30T01:11:38;100844.47;;;14.95;70.51
64388;BME280;50709;52.648;4.764;2022-09-30T01:14:10;100852.38;;;14.92;70.51
64388;BME280;50709;52.648;4.764;2022-09-30T01:21:58;100868.03;;;15.02;70.09
64388;BME280;50709;52.648;4.764;2022-09-30T01:25:23;100863.78;;;14.93;69.69
64388;BME280;50709;52.648;4.764;2022-09-30T01:36:19;100870.16;;;14.78;70.37
64388;BME280;50709;52.648;4.764;2022-09-30T01:39:23;100865.66;;;14.83;70.12
64388;BME280;50709;52.648;4.764;2022-09-30T01:42:04;100873.63;;;14.80;70.41
64388;BME280;50709;52.648;4.764;2022-09-30T01:44:46;100871.06;;;14.75;69.96
64388;BME280;50709;52.648;4.764;2022-09-30T01:47:19;100864.91;;;14.75;70.79
64388;BME280;50709;52.648;4.764;2022-09-30T01:49:51;100856.25;;;14.68;70.31
64388;BME280;50709;52.648;4.764;2022-09-30T01:52:22;100831.78;;;14.65;70.02
64388;BME280;50709;52.648;4.764;2022-09-30T01:59:54;100833.53;;;14.64;69.93
64388;BME280;50709;52.648;4.764;2022-09-30T02:02:25;100837.06;;;14.65;70.80
64388;BME280;50709;52.648;4.764;2022-09-30T02:04:56;100825.75;;;14.56;70.51
64388;BME280;50709;52.648;4.764;2022-09-30T02:07:28;100845.88;;;14.57;69.66
64388;BME280;50709;52.648;4.764;2022-09-30T02:10:07;100842.34;;;14.58;69.72
64388;BME280;50709;52.648;4.764;2022-09-30T02:12:37;100845.72;;;14.70;70.37
64388;BME280;50709;52.648;4.764;2022-09-30T02:15:08;100856.31;;;14.65;69.91
64388;BME280;50709;52.648;4.764;2022-09-30T02:17:41;100855.53;;;14.57;69.78
64388;BME280;50709;52.648;4.764;2022-09-30T02:20:25;100865.13;;;14.59;69.67
64388;BME280;50709;52.648;4.764;2022-09-30T02:22:59;100862.56;;;14.53;69.54
64388;BME280;50709;52.648;4.764;2022-09-30T02:25:29;100866.16;;;14.47;70.32
64388;BME280;50709;52.648;4.764;2022-09-30T02:28:00;100866.16;;;14.47;69.92
64388;BME280;50709;52.648;4.764;2022-09-30T02:30:31;100863.56;;;14.46;70.26
64388;BME280;50709;52.648;4.764;2022-09-30T02:33:02;100867.00;;;14.48;70.20
64388;BME280;50709;52.648;4.764;2022-09-30T02:35:44;100868.84;;;14.41;70.10
64388;BME280;50709;52.648;4.764;2022-09-30T02:38:18;100867.97;;;14.42;70.44
64388;BME280;50709;52.648;4.764;2022-09-30T02:40:56;100859.28;;;14.36;70.02
64388;BME280;50709;52.648;4.764;2022-09-30T02:43:26;100874.22;;;14.35;69.77
64388;BME280;50709;52.648;4.764;2022-09-30T02:46:09;100865.59;;;14.25;70.11
64388;BME280;50709;52.648;4.764;2022-09-30T02:48:46;100860.31;;;14.27;70.83
64388;BME280;50709;52.648;4.764;2022-09-30T02:51:23;100867.28;;;14.29;70.50
64388;BME280;50709;52.648;4.764;2022-09-30T02:54:06;100869.94;;;14.25;70.35
64388;BME280;50709;52.648;4.764;2022-09-30T02:57:04;100876.22;;;14.13;70.06
64388;BME280;50709;52.648;4.764;2022-09-30T02:59:33;100879.72;;;14.15;70.18
64388;BME280;50709;52.648;4.764;2022-09-30T03:01:59;100877.94;;;14.16;70.56
64388;BME280;50709;52.648;4.764;2022-09-30T03:04:28;100868.47;;;14.02;70.30
64388;BME280;50709;52.648;4.764;2022-09-30T03:06:55;100881.59;;;14.05;70.40
64388;BME280;50709;52.648;4.764;2022-09-30T03:09:27;100889.47;;;14.05;71.21
64388;BME280;50709;52.648;4.764;2022-09-30T03:11:57;100871.16;;;13.98;70.25
64388;BME280;50709;52.648;4.764;2022-09-30T03:25:19;100902.59;;;14.02;71.18
64388;BME280;50709;52.648;4.764;2022-09-30T03:30:23;100899.19;;;13.94;70.97
64388;BME280;50709;52.648;4.764;2022-09-30T03:35:31;100891.53;;;13.74;70.48
64388;BME280;50709;52.648;4.764;2022-09-30T03:38:51;100901.91;;;13.85;71.43
64388;BME280;50709;52.648;4.764;2022-09-30T03:41:34;100905.34;;;13.94;71.18
64388;BME280;50709;52.648;4.764;2022-09-30T03:46:37;100915.78;;;13.99;71.25
64388;BME280;50709;52.648;4.764;2022-09-30T03:49:09;100907.91;;;13.99;71.00
64388;BME280;50709;52.648;4.764;2022-09-30T03:51:37;100903.66;;;13.89;71.21
64388;BME280;50709;52.648;4.764;2022-09-30T03:54:08;100902.84;;;13.80;71.01
64388;BME280;50709;52.648;4.764;2022-09-30T03:56:34;100915.91;;;13.87;70.87
64388;BME280;50709;52.648;4.764;2022-09-30T03:59:00;100910.69;;;13.84;70.79
64388;BME280;50709;52.648;4.764;2022-09-30T04:01:25;100908.06;;;13.85;70.75
64388;BME280;50709;52.648;4.764;2022-09-30T04:03:52;100907.09;;;13.95;71.09
64388;BME280;50709;52.648;4.764;2022-09-30T04:06:19;100905.38;;;13.90;70.21
64388;BME280;50709;52.648;4.764;2022-09-30T04:08:45;100915.00;;;13.91;70.71
64388;BME280;50709;52.648;4.764;2022-09-30T04:11:10;100912.44;;;13.86;70.81
64388;BME280;50709;52.648;4.764;2022-09-30T04:13:37;100900.34;;;13.68;69.56
64388;BME280;50709;52.648;4.764;2022-09-30T04:16:03;100900.50;;;13.53;70.14
64388;BME280;50709;52.648;4.764;2022-09-30T04:18:29;100896.88;;;13.63;71.67
64388;BME280;50709;52.648;4.764;2022-09-30T04:20:56;100887.34;;;13.56;70.71
64388;BME280;50709;52.648;4.764;2022-09-30T04:23:21;100897.72;;;13.67;71.56
64388;BME280;50709;52.648;4.764;2022-09-30T04:25:53;100891.72;;;13.55;71.13
64388;BME280;50709;52.648;4.764;2022-09-30T04:28:20;100899.59;;;13.55;70.99
64388;BME280;50709;52.648;4.764;2022-09-30T04:30:45;100906.50;;;13.64;71.09
64388;BME280;50709;52.648;4.764;2022-09-30T04:33:11;100915.28;;;13.61;70.99
64388;BME280;50709;52.648;4.764;2022-09-30T04:35:37;100919.63;;;13.62;70.68
64388;BME280;50709;52.648;4.764;2022-09-30T04:38:03;100919.63;;;13.62;70.91
64388;BME280;50709;52.648;4.764;2022-09-30T04:40:34;100909.19;;;13.58;70.67
64388;BME280;50709;52.648;4.764;2022-09-30T04:43:00;100927.47;;;13.66;70.93
64388;BME280;50709;52.648;4.764;2022-09-30T04:45:25;100936.31;;;13.57;70.69
64388;BME280;50709;52.648;4.764;2022-09-30T04:47:50;100933.69;;;13.57;70.33
64388;BME280;50709;52.648;4.764;2022-09-30T04:50:16;100939.81;;;13.57;70.78
64388;BME280;50709;52.648;4.764;2022-09-30T04:52:42;100938.97;;;13.54;70.87
64388;BME280;50709;52.648;4.764;2022-09-30T04:55:08;100943.31;;;13.55;71.25
64388;BME280;50709;52.648;4.764;2022-09-30T04:57:34;100945.13;;;13.50;70.92
64388;BME280;50709;52.648;4.764;2022-09-30T05:00:01;100948.56;;;13.55;71.40
64388;BME280;50709;52.648;4.764;2022-09-30T05:02:26;100952.09;;;13.51;71.22
64388;BME280;50709;52.648;4.764;2022-09-30T05:04:52;100952.09;;;13.51;70.77
64388;BME280;50709;52.648;4.764;2022-09-30T05:07:19;100946.09;;;13.38;71.11
64388;BME280;50709;52.648;4.764;2022-09-30T05:09:45;100961.81;;;13.39;71.30
64388;BME280;50709;52.648;4.764;2022-09-30T05:12:10;100950.44;;;13.37;71.43
64388;BME280;50709;52.648;4.764;2022-09-30T05:14:36;100954.81;;;13.38;71.89
64388;BME280;50709;52.648;4.764;2022-09-30T05:17:01;100949.56;;;13.40;71.83
64388;BME280;50709;52.648;4.764;2022-09-30T05:19:28;100957.47;;;13.34;71.70
64388;BME280;50709;52.648;4.764;2022-09-30T05:21:53;100953.94;;;13.39;72.14
64388;BME280;50709;52.648;4.764;2022-09-30T05:24:19;100957.47;;;13.37;72.42
64388;BME280;50709;52.648;4.764;2022-09-30T05:26:44;100949.53;;;13.41;72.50
64388;BME280;50709;52.648;4.764;2022-09-30T05:29:09;100953.03;;;13.45;73.19
64388;BME280;50709;52.648;4.764;2022-09-30T05:31:35;100951.28;;;13.47;73.25
64388;BME280;50709;52.648;4.764;2022-09-30T05:34:00;100939.50;;;15.28;70.59
64388;BME280;50709;52.648;4.764;2022-09-30T05:36:26;100948.75;;;14.28;70.73
64388;BME280;50709;52.648;4.764;2022-09-30T05:38:52;100943.81;;;13.97;72.05
64388;BME280;50709;52.648;4.764;2022-09-30T05:41:18;100951.78;;;13.85;72.49
64388;BME280;50709;52.648;4.764;2022-09-30T05:43:46;100947.56;;;13.70;72.98
64388;BME280;50709;52.648;4.764;2022-09-30T05:46:13;100951.06;;;13.72;72.89
64388;BME280;50709;52.648;4.764;2022-09-30T05:48:38;100954.59;;;13.68;73.18
64388;BME280;50709;52.648;4.764;2022-09-30T05:51:04;100953.72;;;13.66;74.02
64388;BME280;50709;52.648;4.764;2022-09-30T05:53:31;100948.53;;;13.56;73.56
64388;BME280;50709;52.648;4.764;2022-09-30T05:55:56;100941.69;;;13.43;73.17
64388;BME280;50709;52.648;4.764;2022-09-30T05:58:22;100943.31;;;13.55;73.77
64388;BME280;50709;52.648;4.764;2022-09-30T06:00:48;100951.16;;;13.56;73.78
64388;BME280;50709;52.648;4.764;2022-09-30T06:03:15;100933.63;;;13.63;74.30
64388;BME280;50709;52.648;4.764;2022-09-30T06:05:40;100947.72;;;13.54;73.61
64388;BME280;50709;52.648;4.764;2022-09-30T06:08:06;100947.63;;;13.65;74.19
64388;BME280;50709;52.648;4.764;2022-09-30T06:10:33;100955.53;;;13.62;73.24
64388;BME280;50709;52.648;4.764;2022-09-30T06:13:01;100952.00;;;13.65;73.76
64388;BME280;50709;52.648;4.764;2022-09-30T06:15:26;100957.16;;;13.75;73.92
64388;BME280;50709;52.648;4.764;2022-09-30T06:17:52;100961.56;;;13.72;73.77
64388;BME280;50709;52.648;4.764;2022-09-30T06:20:18;100970.34;;;13.68;73.44
64388;BME280;50709;52.648;4.764;2022-09-30T06:22:44;100962.38;;;13.74;73.92
64388;BME280;50709;52.648;4.764;2022-09-30T06:25:10;100959.66;;;13.88;74.06
64388;BME280;50709;52.648;4.764;2022-09-30T06:27:35;100958.88;;;13.79;73.10
64388;BME280;50709;52.648;4.764;2022-09-30T06:30:05;100951.91;;;13.72;74.17
64388;BME280;50709;52.648;4.764;2022-09-30T06:32:31;100964.94;;;13.83;73.59
64388;BME280;50709;52.648;4.764;2022-09-30T06:34:56;100961.44;;;13.83;73.75
64388;BME280;50709;52.648;4.764;2022-09-30T06:37:43;100964.03;;;13.87;73.45
64388;BME280;50709;52.648;4.764;2022-09-30T06:40:08;100967.56;;;13.86;73.61
64388;BME280;50709;52.648;4.764;2022-09-30T06:42:34;100972.78;;;13.85;74.24
64388;BME280;50709;52.648;4.764;2022-09-30T06:44:59;100976.31;;;13.85;74.08
64388;BME280;50709;52.648;4.764;2022-09-30T06:47:25;100985.84;;;13.95;73.94
64388;BME280;50709;52.648;4.764;2022-09-30T06:49:50;100981.59;;;13.79;73.77
64388;BME280;50709;52.648;4.764;2022-09-30T06:52:17;100979.06;;;13.71;73.58
64388;BME280;50709;52.648;4.764;2022-09-30T06:54:44;100970.28;;;13.72;73.16
64388;BME280;50709;52.648;4.764;2022-09-30T06:57:09;100968.19;;;14.08;73.78
64388;BME280;50709;52.648;4.764;2022-09-30T06:59:34;100966.41;;;14.12;73.97
64388;BME280;50709;52.648;4.764;2022-09-30T07:02:00;100959.59;;;13.94;73.05
64388;BME280;50709;52.648;4.764;2022-09-30T07:04:25;100965.03;;;13.75;73.25
64388;BME280;50709;52.648;4.764;2022-09-30T07:06:50;100963.78;;;14.13;73.76
64388;BME280;50709;52.648;4.764;2022-09-30T07:09:16;100961.78;;;14.34;73.71
64388;BME280;50709;52.648;4.764;2022-09-30T07:11:41;100954.69;;;14.42;73.65
64388;BME280;50709;52.648;4.764;2022-09-30T07:14:07;100957.31;;;14.42;73.23
64388;BME280;50709;52.648;4.764;2022-09-30T07:16:34;100952.75;;;14.57;73.21
64388;BME280;50709;52.648;4.764;2022-09-30T07:19:00;100947.44;;;14.65;72.50
64388;BME280;50709;52.648;4.764;2022-09-30T07:21:26;100956.19;;;14.65;72.33
64388;BME280;50709;52.648;4.764;2022-09-30T07:23:52;100948.09;;;14.79;72.06
64388;BME280;50709;52.648;4.764;2022-09-30T07:26:21;100947.19;;;14.85;71.84
64388;BME280;50709;52.648;4.764;2022-09-30T07:28:48;100947.25;;;14.78;69.60
64388;BME280;50709;52.648;4.764;2022-09-30T07:31:19;100947.75;;;15.05;71.24
64388;BME280;50709;52.648;4.764;2022-09-30T07:33:46;100947.66;;;15.13;71.30
64388;BME280;50709;52.648;4.764;2022-09-30T07:36:14;100943.06;;;15.26;70.56
64388;BME280;50709;52.648;4.764;2022-09-30T07:38:43;100936.81;;;15.31;70.65
64388;BME280;50709;52.648;4.764;2022-09-30T07:41:14;100943.78;;;15.37;70.56
64388;BME280;50709;52.648;4.764;2022-09-30T07:43:43;100937.72;;;15.29;68.43
64388;BME280;50709;52.648;4.764;2022-09-30T07:46:11;100946.22;;;15.46;69.06
64388;BME280;50709;52.648;4.764;2022-09-30T07:48:38;100927.56;;;15.62;68.37
64388;BME280;50709;52.648;4.764;2022-09-30T07:53:38;100937.88;;;15.74;67.49
64388;BME280;50709;52.648;4.764;2022-09-30T07:56:04;100941.00;;;15.98;68.19
64388;BME280;50709;52.648;4.764;2022-09-30T07:58:31;100937.22;;;16.11;67.38
64388;BME280;50709;52.648;4.764;2022-09-30T08:00:56;100934.19;;;16.30;67.26
64388;BME280;50709;52.648;4.764;2022-09-30T08:03:22;100933.31;;;16.31;67.11
64388;BME280;50709;52.648;4.764;2022-09-30T08:05:47;100937.38;;;16.47;66.37
64388;BME280;50709;52.648;4.764;2022-09-30T08:08:14;100929.41;;;16.49;65.62
64388;BME280;50709;52.648;4.764;2022-09-30T08:10:40;100927.94;;;16.37;65.00
64388;BME280;50709;52.648;4.764;2022-09-30T08:13:07;100934.69;;;16.49;65.56
64388;BME280;50709;52.648;4.764;2022-09-30T08:15:32;100936.34;;;16.55;65.77
64388;BME280;50709;52.648;4.764;2022-09-30T08:17:58;100936.97;;;16.66;65.40
64388;BME280;50709;52.648;4.764;2022-09-30T08:20:23;100944.59;;;16.80;65.47
64388;BME280;50709;52.648;4.764;2022-09-30T08:22:55;100945.75;;;16.67;64.33
64388;BME280;50709;52.648;4.764;2022-09-30T08:25:23;100935.94;;;16.73;63.91
64388;BME280;50709;52.648;4.764;2022-09-30T08:27:50;100936.50;;;16.88;65.33
64388;BME280;50709;52.648;4.764;2022-09-30T08:30:16;100942.25;;;17.07;64.45
64388;BME280;50709;52.648;4.764;2022-09-30T08:32:41;100939.66;;;17.05;64.41
64388;BME280;50709;52.648;4.764;2022-09-30T08:35:07;100947.69;;;16.99;64.90
64388;BME280;50709;52.648;4.764;2022-09-30T08:37:32;100946.34;;;17.20;65.13
64388;BME280;50709;52.648;4.764;2022-09-30T08:39:58;100949.09;;;17.15;64.43
64388;BME280;50709;52.648;4.764;2022-09-30T08:42:39;100948.88;;;17.25;64.27
64388;BME280;50709;52.648;4.764;2022-09-30T08:47:55;100941.31;;;17.09;64.98
64388;BME280;50709;52.648;4.764;2022-09-30T08:53:24;100930.06;;;17.39;63.72
64388;BME280;50709;52.648;4.764;2022-09-30T08:55:51;100936.91;;;17.46;63.32
64388;BME280;50709;52.648;4.764;2022-09-30T08:58:34;100934.13;;;17.52;63.68
64388;BME280;50709;52.648;4.764;2022-09-30T09:03:40;100931.38;;;17.57;63.26
64388;BME280;50709;52.648;4.764;2022-09-30T09:06:21;100942.72;;;17.60;63.10
64388;BME280;50709;52.648;4.764;2022-09-30T09:09:01;100918.06;;;17.61;63.09
64388;BME280;50709;52.648;4.764;2022-09-30T09:17:06;100907.06;;;17.77;61.57
64388;BME280;50709;52.648;4.764;2022-09-30T09:19:42;100917.78;;;17.72;61.25
64388;BME280;50709;52.648;4.764;2022-09-30T09:22:09;100923.31;;;17.96;61.48
64388;BME280;50709;52.648;4.764;2022-09-30T09:24:46;100919.25;;;17.82;60.87
64388;BME280;50709;52.648;4.764;2022-09-30T09:27:20;100937.94;;;18.09;61.09
64388;BME280;50709;52.648;4.764;2022-09-30T09:29:57;100933.19;;;18.22;59.67
64388;BME280;50709;52.648;4.764;2022-09-30T09:32:26;100926.91;;;18.26;60.39
64388;BME280;50709;52.648;4.764;2022-09-30T09:34:56;100921.66;;;18.25;60.89
64388;BME280;50709;52.648;4.764;2022-09-30T09:37:32;100931.13;;;18.32;60.62
64388;BME280;50709;52.648;4.764;2022-09-30T09:40:29;100923.31;;;18.27;60.42
64388;BME280;50709;52.648;4.764;2022-09-30T09:43:42;100932.41;;;18.19;60.61
64388;BME280;50709;52.648;4.764;2022-09-30T09:48:20;100938.72;;;18.13;60.00
64388;BME280;50709;52.648;4.764;2022-09-30T09:53:30;100942.13;;;18.18;61.57
64388;BME280;50709;52.648;4.764;2022-09-30T09:56:12;100945.91;;;18.39;60.98
64388;BME280;50709;52.648;4.764;2022-09-30T09:59:13;100940.13;;;18.26;60.57
64388;BME280;50709;52.648;4.764;2022-09-30T10:01:42;100924.53;;;18.47;61.16
64388;BME280;50709;52.648;4.764;2022-09-30T10:09:36;100925.63;;;18.40;59.72
64388;BME280;50709;52.648;4.764;2022-09-30T10:14:31;100924.03;;;18.64;59.33
64388;BME280;50709;52.648;4.764;2022-09-30T10:17:03;100913.00;;;18.49;58.09
64388;BME280;50709;52.648;4.764;2022-09-30T10:19:31;100915.44;;;18.56;58.81
64388;BME280;50709;52.648;4.764;2022-09-30T10:22:17;100920.97;;;18.78;59.01
64388;BME280;50709;52.648;4.764;2022-09-30T10:24:43;100910.34;;;18.79;58.27
64388;BME280;50709;52.648;4.764;2022-09-30T10:27:28;100918.81;;;18.91;59.50
64388;BME280;50709;52.648;4.764;2022-09-30T10:29:54;100914.63;;;18.83;57.93
64388;BME280;50709;52.648;4.764;2022-09-30T10:32:20;100911.53;;;18.99;57.53
64388;BME280;50709;52.648;4.764;2022-09-30T10:37:51;100913.97;;;19.05;55.71
64388;BME280;50709;52.648;4.764;2022-09-30T10:40:17;100908.16;;;18.94;58.37
64388;BME280;50709;52.648;4.764;2022-09-30T10:42:45;100912.88;;;18.82;57.17
64388;BME280;50709;52.648;4.764;2022-09-30T10:45:23;100910.19;;;18.84;58.61
64388;BME280;50709;52.648;4.764;2022-09-30T10:47:54;100902.56;;;18.73;57.56
64388;BME280;50709;52.648;4.764;2022-09-30T10:50:23;100901.03;;;18.96;55.69
64388;BME280;50709;52.648;4.764;2022-09-30T10:52:57;100911.66;;;18.94;57.30
64388;BME280;50709;52.648;4.764;2022-09-30T10:55:31;100909.50;;;19.07;56.49
64388;BME280;50709;52.648;4.764;2022-09-30T10:58:08;100907.31;;;19.20;57.73
64388;BME280;50709;52.648;4.764;2022-09-30T11:00:48;100905.75;;;19.41;56.16
64388;BME280;50709;52.648;4.764;2022-09-30T11:03:21;100896.28;;;19.34;58.16
64388;BME280;50709;52.648;4.764;2022-09-30T11:05:49;100895.34;;;19.35;58.03
64388;BME280;50709;52.648;4.764;2022-09-30T11:08:18;100900.19;;;19.22;57.83
64388;BME280;50709;52.648;4.764;2022-09-30T11:11:07;100891.66;;;19.12;58.42
64388;BME280;50709;52.648;4.764;2022-09-30T11:21:21;100893.75;;;19.03;58.68
64388;BME280;50709;52.648;4.764;2022-09-30T11:23:54;100895.44;;;19.05;57.75
64388;BME280;50709;52.648;4.764;2022-09-30T11:29:08;100879.88;;;19.23;58.52
64388;BME280;50709;52.648;4.764;2022-09-30T11:31:59;100871.88;;;19.24;59.06
64388;BME280;50709;52.648;4.764;2022-09-30T11:34:35;100857.19;;;19.41;58.42
64388;BME280;50709;52.648;4.764;2022-09-30T11:37:16;100866.88;;;19.42;58.36
64388;BME280;50709;52.648;4.764;2022-09-30T11:50:18;100845.91;;;19.36;58.31
64388;BME280;50709;52.648;4.764;2022-09-30T11:53:02;100846.53;;;19.17;59.08
64388;BME280;50709;52.648;4.764;2022-09-30T11:55:35;100845.97;;;19.07;57.14
64388;BME280;50709;52.648;4.764;2022-09-30T11:58:08;100847.13;;;19.25;58.88
64388;BME280;50709;52.648;4.764;2022-09-30T12:00:38;100841.94;;;18.95;57.60
64388;BME280;50709;52.648;4.764;2022-09-30T12:03:18;100854.41;;;18.92;59.95
64388;BME280;50709;52.648;4.764;2022-09-30T12:05:51;100850.66;;;18.99;57.54
64388;BME280;50709;52.648;4.764;2022-09-30T12:08:34;100853.91;;;19.07;60.00
64388;BME280;50709;52.648;4.764;2022-09-30T12:11:06;100844.78;;;18.89;60.92
64388;BME280;50709;52.648;4.764;2022-09-30T12:13:37;100851.41;;;18.74;61.07
64388;BME280;50709;52.648;4.764;2022-09-30T12:16:13;100846.34;;;18.96;59.97
64388;BME280;50709;52.648;4.764;2022-09-30T12:18:49;100842.44;;;18.78;59.70
64388;BME280;50709;52.648;4.764;2022-09-30T12:21:30;100844.03;;;18.84;61.47
64388;BME280;50709;52.648;4.764;2022-09-30T12:24:10;100842.09;;;18.91;59.99
64388;BME280;50709;52.648;4.764;2022-09-30T12:26:39;100844.53;;;18.97;60.78
64388;BME280;50709;52.648;4.764;2022-09-30T12:29:14;100844.09;;;18.82;59.36
64388;BME280;50709;52.648;4.764;2022-09-30T12:34:50;100825.56;;;18.82;60.53
64388;BME280;50709;52.648;4.764;2022-09-30T12:51:17;100804.56;;;19.31;57.16
64388;BME280;50709;52.648;4.764;2022-09-30T12:53:49;100798.50;;;19.28;56.23
64388;BME280;50709;52.648;4.764;2022-09-30T12:56:17;100796.25;;;19.42;56.54
64388;BME280;50709;52.648;4.764;2022-09-30T12:58:50;100798.31;;;19.34;57.97
64388;BME280;50709;52.648;4.764;2022-09-30T13:03:45;100795.09;;;19.49;56.73
64388;BME280;50709;52.648;4.764;2022-09-30T13:06:14;100790.34;;;19.34;57.38
64388;BME280;50709;52.648;4.764;2022-09-30T13:27:38;100774.34;;;19.37;57.37
64388;BME280;50709;52.648;4.764;2022-09-30T13:32:43;100768.03;;;19.41;56.83
64388;BME280;50709;52.648;4.764;2022-09-30T13:35:33;100773.91;;;19.24;56.30
64388;BME280;50709;52.648;4.764;2022-09-30T13:43:22;100758.47;;;19.12;58.14
64388;BME280;50709;52.648;4.764;2022-09-30T13:45:52;100753.41;;;19.06;58.07
64388;BME280;50709;52.648;4.764;2022-09-30T13:48:27;100758.41;;;19.13;57.82
64388;BME280;50709;52.648;4.764;2022-09-30T13:50:56;100762.47;;;19.24;57.96
64388;BME280;50709;52.648;4.764;2022-09-30T13:55:52;100762.78;;;19.14;58.28
64388;BME280;50709;52.648;4.764;2022-09-30T14:01:40;100753.09;;;19.13;58.68
64388;BME280;50709;52.648;4.764;2022-09-30T14:13:22;100753.88;;;19.17;56.85
64388;BME280;50709;52.648;4.764;2022-09-30T14:18:44;100730.69;;;18.98;58.82
64388;BME280;50709;52.648;4.764;2022-09-30T14:23:43;100730.31;;;19.09;57.59
64388;BME280;50709;52.648;4.764;2022-09-30T14:31:12;100722.56;;;19.28;57.76
64388;BME280;50709;52.648;4.764;2022-09-30T14:33:38;100731.59;;;19.23;57.14
64388;BME280;50709;52.648;4.764;2022-09-30T14:36:13;100723.41;;;19.05;58.05
64388;BME280;50709;52.648;4.764;2022-09-30T14:38:44;100727.59;;;19.11;58.88
64388;BME280;50709;52.648;4.764;2022-09-30T14:41:20;100733.19;;;19.03;57.44
64388;BME280;50709;52.648;4.764;2022-09-30T14:43:51;100725.19;;;18.78;56.99
64388;BME280;50709;52.648;4.764;2022-09-30T14:46:31;100732.97;;;19.09;57.74
64388;BME280;50709;52.648;4.764;2022-09-30T14:49:01;100727.91;;;19.03;56.18
64388;BME280;50709;52.648;4.764;2022-09-30T14:51:34;100735.25;;;18.95;56.05
64388;BME280;50709;52.648;4.764;2022-09-30T14:54:02;100734.25;;;18.97;56.67
64388;BME280;50709;52.648;4.764;2022-09-30T14:56:33;100726.47;;;18.93;56.04
64388;BME280;50709;52.648;4.764;2022-09-30T14:58:59;100724.00;;;18.88;52.32
64388;BME280;50709;52.648;4.764;2022-09-30T15:01:36;100725.19;;;18.78;53.64
64388;BME280;50709;52.648;4.764;2022-09-30T15:04:18;100716.13;;;18.85;54.88
64388;BME280;50709;52.648;4.764;2022-09-30T15:06:48;100721.97;;;18.96;56.11
64388;BME280;50709;52.648;4.764;2022-09-30T15:11:43;100721.31;;;18.90;54.61
64388;BME280;50709;52.648;4.764;2022-09-30T15:14:20;100735.38;;;18.90;55.71
64388;BME280;50709;52.648;4.764;2022-09-30T15:16:51;100719.91;;;18.78;56.66
64388;BME280;50709;52.648;4.764;2022-09-30T15:19:21;100723.16;;;18.59;49.23
64388;BME280;50709;52.648;4.764;2022-09-30T15:21:49;100716.91;;;18.62;52.03
64388;BME280;50709;52.648;4.764;2022-09-30T15:24:17;100712.28;;;18.69;56.06
64388;BME280;50709;52.648;4.764;2022-09-30T15:26:44;100718.59;;;18.64;53.97
64388;BME280;50709;52.648;4.764;2022-09-30T15:29:15;100721.69;;;18.51;52.43
64388;BME280;50709;52.648;4.764;2022-09-30T15:31:52;100708.72;;;18.70;53.92
64388;BME280;50709;52.648;4.764;2022-09-30T15:34:21;100721.41;;;18.60;53.26
64388;BME280;50709;52.648;4.764;2022-09-30T15:37:03;100709.81;;;18.62;55.29
64388;BME280;50709;52.648;4.764;2022-09-30T15:39:32;100717.19;;;18.79;56.31
64388;BME280;50709;52.648;4.764;2022-09-30T15:42:32;100712.69;;;18.56;53.51
64388;BME280;50709;52.648;4.764;2022-09-30T15:45:03;100704.44;;;18.65;56.63
64388;BME280;50709;52.648;4.764;2022-09-30T15:47:52;100702.16;;;18.55;54.70
64388;BME280;50709;52.648;4.764;2022-09-30T15:50:40;100698.50;;;18.59;56.08
64388;BME280;50709;52.648;4.764;2022-09-30T15:53:16;100699.72;;;18.48;56.62
64388;BME280;50709;52.648;4.764;2022-09-30T15:55:43;100705.72;;;18.54;56.38
64388;BME280;50709;52.648;4.764;2022-09-30T16:03:36;100708.84;;;18.66;55.97